Time;durP1;ratioP1;P1;durP2;ratioP2;P2;SDS_P1;SDS_P2;PMS_P1;PMS_P2;Temp;Humidity;BMP_temperature;BMP_pressure;BME280_temperature;BME280_humidity;BME280_pressure;Samples;Min_cycle;Max_cycle;Signal;HPM_P1;HPM_P2
2021/11/06 00:00:23;;;;;;;;;7.75;7.75;;;;;20.23;40.63;102714.53;4970783;28;51375;-54
2021/11/06 00:02:48;;;;;;;;;7.75;6.00;;;;;20.19;40.39;102719.50;4972768;28;51319;-47
2021/11/06 00:05:15;;;;;;;;;9.75;7.00;;;;;20.15;40.73;102714.53;4954002;28;50992;-49
2021/11/06 00:07:40;;;;;;;;;7.75;7.75;;;;;20.12;40.42;102718.50;4958655;28;51176;-50
2021/11/06 00:10:08;;;;;;;;;7.50;6.50;;;;;20.09;40.80;102724.31;4971629;28;51117;-47
2021/11/06 00:12:33;;;;;;;;;9.50;8.50;;;;;20.06;40.82;102724.69;4953981;28;51577;-48
2021/11/06 00:14:59;;;;;;;;;8.50;7.00;;;;;20.03;40.42;102721.44;4961414;28;51221;-51
2021/11/06 00:17:24;;;;;;;;;8.00;8.00;;;;;20.01;40.83;102724.38;4953531;28;51155;-50
2021/11/06 00:19:50;;;;;;;;;9.25;7.25;;;;;19.97;40.63;102728.47;4957925;28;50942;-49
2021/11/06 00:22:15;;;;;;;;;7.75;7.75;;;;;19.96;41.04;102732.25;4970868;28;51225;-50
2021/11/06 00:24:41;;;;;;;;;9.25;6.75;;;;;19.93;41.00;102724.38;4953236;28;51748;-54
2021/11/06 00:27:06;;;;;;;;;8.00;7.00;;;;;19.91;40.68;102733.84;4966477;28;51101;-49
2021/11/06 00:29:32;;;;;;;;;9.00;7.75;;;;;19.87;40.62;102736.91;4971936;28;50943;-48
2021/11/06 00:31:57;;;;;;;;;8.00;8.00;;;;;19.85;41.02;102738.97;4962069;28;51245;-51
2021/11/06 00:34:22;;;;;;;;;6.75;6.00;;;;;19.82;41.14;102731.09;4953150;28;51307;-50
2021/11/06 00:36:48;;;;;;;;;7.75;6.50;;;;;19.79;40.91;102728.66;4952752;28;51074;-51
2021/11/06 00:39:13;;;;;;;;;7.75;6.25;;;;;19.78;41.09;102726.09;4953181;28;51119;-52
2021/11/06 00:41:39;;;;;;;;;8.00;5.50;;;;;19.76;40.90;102730.91;4964914;28;51073;-52
2021/11/06 00:44:05;;;;;;;;;7.75;6.25;;;;;19.73;40.98;102726.63;4963444;28;52769;-52
2021/11/06 00:46:30;;;;;;;;;8.00;6.75;;;;;19.72;41.01;102721.28;4971561;28;51179;-51
2021/11/06 00:48:56;;;;;;;;;8.25;7.00;;;;;19.69;40.97;102716.97;4972054;28;51068;-49
2021/11/06 00:51:22;;;;;;;;;8.25;7.75;;;;;19.68;40.98;102725.41;4972267;28;50991;-47
2021/11/06 00:53:48;;;;;;;;;8.00;7.75;;;;;19.65;41.00;102712.00;4964698;28;51765;-49
2021/11/06 00:56:13;;;;;;;;;7.00;7.00;;;;;19.64;41.26;102715.78;4958314;28;51033;-50
2021/11/06 00:58:39;;;;;;;;;7.75;7.50;;;;;19.62;41.05;102717.84;4955862;28;51153;-50
2021/11/06 01:01:05;;;;;;;;;8.50;6.75;;;;;19.58;41.23;102712.66;4963971;28;51083;-52
2021/11/06 01:03:30;;;;;;;;;6.25;6.25;;;;;19.57;40.91;102701.84;4974787;28;50987;-51
2021/11/06 01:05:55;;;;;;;;;10.50;8.75;;;;;19.56;40.98;102703.75;4966877;28;50885;-49
2021/11/06 01:08:21;;;;;;;;;5.25;5.25;;;;;19.54;41.20;102696.69;4968446;28;51632;-50
2021/11/06 01:10:46;;;;;;;;;8.00;7.00;;;;;19.51;41.31;102689.63;4960183;28;51098;-50
2021/11/06 01:13:12;;;;;;;;;7.75;6.00;;;;;19.50;41.11;102695.31;4955497;28;50984;-51
2021/11/06 01:15:38;;;;;;;;;7.25;7.00;;;;;19.48;41.31;102700.09;4967607;28;51038;-50
2021/11/06 01:18:03;;;;;;;;;9.25;6.50;;;;;19.45;41.42;102695.81;4973968;28;51230;-52
2021/11/06 01:20:29;;;;;;;;;8.00;8.00;;;;;19.45;41.22;102708.69;4960460;28;51336;-47
2021/11/06 01:22:54;;;;;;;;;9.00;6.00;;;;;19.42;41.28;102704.41;4962393;28;51637;-51
2021/11/06 01:25:20;;;;;;;;;7.00;6.00;;;;;19.42;41.50;102709.03;4959686;28;51126;-48
2021/11/06 01:27:46;;;;;;;;;6.50;6.25;;;;;19.40;41.46;102706.47;4964166;28;51112;-48
2021/11/06 01:30:12;;;;;;;;;5.25;5.25;;;;;19.38;41.29;102708.50;4963836;28;51377;-50
2021/11/06 01:32:39;;;;;;;;;8.25;6.00;;;;;19.36;41.38;102702.31;4955880;28;51731;-48
2021/11/06 01:35:05;;;;;;;;;6.50;6.25;;;;;19.36;41.65;102709.72;4975283;28;51329;-48
2021/11/06 01:37:32;;;;;;;;;7.00;6.25;;;;;19.32;41.52;102707.31;4973437;28;51284;-49
2021/11/06 01:39:57;;;;;;;;;6.25;5.25;;;;;19.31;41.29;102700.09;4955615;28;51197;-52
2021/11/06 01:42:25;;;;;;;;;7.00;6.00;;;;;19.31;41.44;102702.00;4971358;28;51071;-47
2021/11/06 01:44:50;;;;;;;;;7.50;6.50;;;;;19.28;41.54;102697.69;4963496;28;51150;-53
2021/11/06 01:47:16;;;;;;;;;8.50;6.50;;;;;19.28;41.70;102702.34;4974657;28;51051;-50
2021/11/06 01:49:41;;;;;;;;;7.00;7.00;;;;;19.26;41.41;102694.25;4974515;28;51706;-51
2021/11/06 01:52:07;;;;;;;;;7.75;5.00;;;;;19.25;41.55;102694.41;4960247;28;51085;-49
2021/11/06 01:54:33;;;;;;;;;6.25;6.00;;;;;19.24;41.63;102696.31;4955315;28;51057;-48
2021/11/06 01:57:00;;;;;;;;;8.25;6.75;;;;;19.22;41.74;102698.38;4955375;28;51067;-50
2021/11/06 01:59:26;;;;;;;;;8.00;7.50;;;;;19.21;41.53;102693.91;4969018;28;51525;-47
2021/11/06 02:01:51;;;;;;;;;6.75;6.00;;;;;19.20;41.81;102699.56;4954921;28;51643;-51
2021/11/06 02:04:17;;;;;;;;;6.25;5.75;;;;;19.19;41.47;102692.38;4955245;28;51080;-53
2021/11/06 02:06:43;;;;;;;;;6.00;4.75;;;;;19.17;41.54;102689.75;4955431;28;51155;-49
2021/11/06 02:09:08;;;;;;;;;8.50;6.50;;;;;19.14;41.81;102692.84;4968297;27;51334;-50
2021/11/06 02:11:35;;;;;;;;;6.25;5.00;;;;;19.15;41.57;102700.06;4963653;28;51067;-52
2021/11/06 02:14:01;;;;;;;;;5.25;5.25;;;;;19.14;42.03;102700.22;4968674;28;51427;-50
2021/11/06 02:16:26;;;;;;;;;8.50;7.75;;;;;19.12;41.82;102707.78;4961853;28;51123;-52
2021/11/06 02:18:53;;;;;;;;;5.25;5.25;;;;;19.12;41.68;102705.91;4955387;28;51216;-50
2021/11/06 02:21:20;;;;;;;;;7.50;6.25;;;;;19.09;41.74;102703.50;4971218;28;52393;-49
2021/11/06 02:23:49;;;;;;;;;6.00;6.00;;;;;19.08;41.60;102699.03;4958940;28;51399;-52
2021/11/06 02:26:18;;;;;;;;;6.25;6.00;;;;;19.07;41.47;102705.56;4964771;28;51135;-50
2021/11/06 02:28:49;;;;;;;;;6.75;6.25;;;;;19.06;41.77;102706.56;4978803;28;51344;-51
2021/11/06 02:31:15;;;;;;;;;6.00;6.00;;;;;19.05;41.55;102707.59;4966462;28;51001;-48
2021/11/06 02:33:41;;;;;;;;;6.50;5.00;;;;;19.03;41.76;102696.78;4954696;28;51673;-51
2021/11/06 02:36:07;;;;;;;;;7.50;7.00;;;;;19.02;41.58;102692.31;4970578;28;51183;-47
2021/11/06 02:38:32;;;;;;;;;6.75;5.00;;;;;19.02;41.87;102691.47;4974595;28;51162;-49
2021/11/06 02:40:57;;;;;;;;;8.75;6.75;;;;;19.00;41.69;102694.38;4968616;28;51136;-49
2021/11/06 02:43:23;;;;;;;;;6.50;6.50;;;;;19.00;41.88;102690.78;4968557;28;51058;-52
2021/11/06 02:45:48;;;;;;;;;8.00;6.50;;;;;18.98;41.93;102690.94;4956880;28;51967;-47
2021/11/06 02:48:14;;;;;;;;;10.00;7.00;;;;;18.98;41.75;102685.44;4957980;28;51526;-47
2021/11/06 02:50:39;;;;;;;;;7.00;7.00;;;;;18.97;42.03;102685.63;4964538;28;51890;-47
2021/11/06 02:53:06;;;;;;;;;8.25;5.25;;;;;18.96;41.77;102690.22;4964533;28;51149;-50
2021/11/06 02:55:31;;;;;;;;;5.75;5.75;;;;;18.94;41.79;102684.06;4954590;28;51063;-47
2021/11/06 02:57:57;;;;;;;;;5.25;4.25;;;;;18.93;42.08;102679.59;4961943;28;51221;-51
2021/11/06 03:00:24;;;;;;;;;5.00;5.00;;;;;18.93;41.88;102686.97;4964450;28;51773;-49
2021/11/06 03:02:49;;;;;;;;;7.25;5.50;;;;;18.91;41.76;102687.13;4974073;28;51319;-47
2021/11/06 03:05:15;;;;;;;;;8.50;6.50;;;;;18.91;41.87;102686.28;4973448;28;51002;-46
2021/11/06 03:07:40;;;;;;;;;4.25;2.00;;;;;18.91;41.89;102697.28;4973520;28;51414;-52
2021/11/06 03:10:08;;;;;;;;;6.00;5.50;;;;;18.88;41.91;102695.72;4966447;28;51027;-49
2021/11/06 03:12:35;;;;;;;;;6.25;6.25;;;;;18.89;42.03;102696.59;4953245;28;51436;-47
2021/11/06 03:15:02;;;;;;;;;8.75;6.00;;;;;18.88;42.02;102700.34;4957129;28;51131;-52
2021/11/06 03:17:28;;;;;;;;;7.00;6.00;;;;;18.86;41.91;102700.53;4974254;28;51280;-50
2021/11/06 03:19:53;;;;;;;;;5.00;5.00;;;;;18.86;42.28;102713.38;4971851;28;51202;-50
2021/11/06 03:22:19;;;;;;;;;7.00;5.75;;;;;18.85;42.05;102714.41;4954416;28;50953;-46
2021/11/06 03:24:44;;;;;;;;;7.75;6.00;;;;;18.83;41.91;102710.97;4963044;28;51012;-51
2021/11/06 03:27:10;;;;;;;;;5.00;4.00;;;;;18.82;42.09;102698.25;4979787;28;51163;-52
2021/11/06 03:29:35;;;;;;;;;6.00;6.00;;;;;18.82;41.96;102701.00;4962108;28;51921;-48
2021/11/06 03:32:01;;;;;;;;;4.75;4.75;;;;;18.81;42.07;102705.66;4971099;28;51019;-53
2021/11/06 03:34:27;;;;;;;;;8.50;6.75;;;;;18.80;42.08;102692.94;4966394;28;51438;-50
2021/11/06 03:36:52;;;;;;;;;7.00;7.00;;;;;18.79;42.31;102696.72;4974259;28;50945;-49
2021/11/06 03:39:18;;;;;;;;;6.00;4.75;;;;;18.78;41.98;102695.00;4972316;28;52055;-49
2021/11/06 03:41:44;;;;;;;;;5.00;5.00;;;;;18.78;41.88;102700.50;4959520;28;51296;-50
2021/11/06 03:44:10;;;;;;;;;6.00;5.50;;;;;18.77;42.10;102701.53;4954012;28;51038;-47
2021/11/06 03:46:36;;;;;;;;;7.75;6.00;;;;;18.77;42.23;102701.53;4972970;28;51127;-50
2021/11/06 03:49:02;;;;;;;;;5.00;5.00;;;;;18.75;42.13;102700.81;4965203;28;51125;-51
2021/11/06 03:51:27;;;;;;;;;4.75;4.75;;;;;18.73;42.04;102698.22;4960862;28;51167;-52
2021/11/06 03:53:52;;;;;;;;;6.25;5.00;;;;;18.74;42.33;102699.94;4970628;28;51382;-52
2021/11/06 03:56:19;;;;;;;;;5.75;5.75;;;;;18.72;42.12;102698.41;4956422;28;51116;-50
2021/11/06 03:58:44;;;;;;;;;5.50;5.50;;;;;18.71;42.05;102702.19;4956427;28;52356;-52
2021/11/06 04:01:10;;;;;;;;;6.75;5.00;;;;;18.70;41.98;102709.56;4970563;28;51165;-52
2021/11/06 04:03:35;;;;;;;;;8.00;6.50;;;;;18.70;42.16;102700.47;4971784;28;50993;-57
2021/11/06 04:06:01;;;;;;;;;5.75;4.25;;;;;18.69;42.16;102702.34;4959371;28;51034;-48
2021/11/06 04:08:27;;;;;;;;;5.00;5.00;;;;;18.69;42.12;102713.31;4955921;28;51289;-51
2021/11/06 04:10:52;;;;;;;;;6.25;6.25;;;;;18.68;42.37;102716.25;4967153;28;51116;-49
2021/11/06 04:13:18;;;;;;;;;5.00;4.00;;;;;18.67;42.30;102709.91;4970218;28;51187;-52
2021/11/06 04:15:44;;;;;;;;;5.00;5.00;;;;;18.66;42.15;102708.19;4960743;28;51390;-52
2021/11/06 04:18:09;;;;;;;;;6.00;5.00;;;;;18.66;42.39;102710.91;4958570;28;51586;-50
2021/11/06 04:20:35;;;;;;;;;3.75;3.75;;;;;18.65;42.36;102717.44;4968288;28;51161;-53
2021/11/06 04:23:00;;;;;;;;;6.50;6.50;;;;;18.65;42.14;102714.69;4953799;28;51167;-51
2021/11/06 04:25:26;;;;;;;;;10.25;6.00;;;;;18.64;42.36;102721.19;4961133;28;51056;-48
2021/11/06 04:27:51;;;;;;;;;6.00;5.00;;;;;18.63;42.09;102726.81;4988747;28;51684;-60
2021/11/06 04:30:16;;;;;;;;;5.00;5.00;;;;;18.61;42.32;102723.38;4956740;28;50972;-51
2021/11/06 04:32:42;;;;;;;;;5.00;5.00;;;;;18.62;42.23;102730.59;4956506;28;51177;-48
2021/11/06 04:35:08;;;;;;;;;6.00;4.00;;;;;18.62;42.32;102727.84;4956790;28;51055;-52
2021/11/06 04:37:34;;;;;;;;;5.25;5.25;;;;;18.60;42.43;102727.16;4961085;28;51013;-51
2021/11/06 04:39:59;;;;;;;;;4.25;4.00;;;;;18.59;42.38;102722.69;4960031;28;50936;-48
2021/11/06 04:42:25;;;;;;;;;4.25;4.25;;;;;18.59;42.25;102736.41;4959292;28;51179;-52
2021/11/06 04:44:50;;;;;;;;;6.25;5.25;;;;;18.59;42.37;102728.19;4956703;28;51065;-51
2021/11/06 04:47:16;;;;;;;;;5.25;5.00;;;;;18.58;42.29;102732.81;4956277;28;51556;-49
2021/11/06 04:49:42;;;;;;;;;5.75;5.75;;;;;18.57;42.37;102730.22;4971783;28;51123;-50
2021/11/06 04:52:07;;;;;;;;;4.75;4.75;;;;;18.56;42.17;102729.38;4968875;28;51366;-48
2021/11/06 04:54:33;;;;;;;;;7.50;5.25;;;;;18.55;42.20;102722.16;4976211;28;51204;-50
2021/11/06 04:56:58;;;;;;;;;5.75;4.00;;;;;18.55;42.27;102730.41;4970502;28;51975;-56
2021/11/06 04:59:23;;;;;;;;;8.25;5.25;;;;;18.54;42.31;102727.78;4964235;28;51144;-51
2021/11/06 05:01:50;;;;;;;;;4.75;4.00;;;;;18.54;42.21;102733.28;4959775;28;51184;-47
2021/11/06 05:04:16;;;;;;;;;5.00;5.00;;;;;18.52;42.30;102736.19;4956281;28;51058;-52
2021/11/06 05:06:41;;;;;;;;;5.25;5.25;;;;;18.53;42.43;102731.56;4956858;28;52821;-52
2021/11/06 05:09:06;;;;;;;;;4.00;4.00;;;;;18.51;42.32;102726.25;4959280;28;51026;-50
2021/11/06 05:11:32;;;;;;;;;6.00;5.00;;;;;18.51;42.40;102736.38;4973526;28;51240;-48
2021/11/06 05:13:59;;;;;;;;;6.00;5.25;;;;;18.50;42.23;102730.00;4968014;28;51079;-48
2021/11/06 05:16:25;;;;;;;;;6.25;6.25;;;;;18.50;42.31;102724.53;4962827;27;51127;-51
2021/11/06 05:18:53;;;;;;;;;5.25;4.50;;;;;18.49;42.38;102724.69;4955938;28;51233;-48
2021/11/06 05:21:19;;;;;;;;;4.25;4.25;;;;;18.49;42.37;102724.69;4956430;28;51750;-51
2021/11/06 05:23:45;;;;;;;;;9.75;5.00;;;;;18.48;42.05;102722.97;4974642;28;51430;-48
2021/11/06 05:26:10;;;;;;;;;4.25;4.25;;;;;18.46;42.42;102721.25;4971524;28;51055;-48
2021/11/06 05:28:35;;;;;;;;;4.75;2.75;;;;;18.46;42.54;102718.50;4974004;28;51189;-50
2021/11/06 05:31:01;;;;;;;;;4.25;4.25;;;;;18.47;42.38;102713.88;4968266;28;51165;-50
2021/11/06 05:33:26;;;;;;;;;4.25;4.25;;;;;18.46;42.31;102720.41;4957590;28;50962;-50
2021/11/06 05:35:51;;;;;;;;;4.75;3.75;;;;;18.44;42.45;102712.34;4974485;28;51072;-48
2021/11/06 05:38:17;;;;;;;;;4.00;4.00;;;;;18.44;42.30;102719.69;4967643;28;51246;-51
2021/11/06 05:40:42;;;;;;;;;3.00;3.00;;;;;18.43;42.40;102713.34;4958880;28;51128;-49
2021/11/06 05:43:07;;;;;;;;;7.25;4.25;;;;;18.43;42.31;102713.34;4955747;28;51205;-53
2021/11/06 05:45:33;;;;;;;;;4.25;3.75;;;;;18.42;42.30;102708.88;4955675;28;51848;-52
2021/11/06 05:47:58;;;;;;;;;7.00;4.00;;;;;18.42;42.39;102708.00;4955681;28;51198;-50
2021/11/06 05:50:24;;;;;;;;;1.00;1.00;;;;;18.42;42.33;102716.25;4956096;28;51156;-48
2021/11/06 05:52:49;;;;;;;;;3.25;3.25;;;;;18.42;42.46;102724.47;4957473;28;50969;-50
2021/11/06 05:55:16;;;;;;;;;4.25;3.75;;;;;18.40;42.58;102713.66;4955883;28;52045;-52
2021/11/06 05:57:41;;;;;;;;;6.25;4.75;;;;;18.40;42.46;102718.28;4960749;28;51124;-50
2021/11/06 06:00:11;;;;;;;;;5.25;4.25;;;;;18.39;42.58;102722.94;4957709;28;51301;-49
2021/11/06 06:02:37;;;;;;;;;3.25;2.75;;;;;18.39;42.51;102725.66;4963900;28;50961;-51
2021/11/06 06:05:03;;;;;;;;;3.00;3.00;;;;;18.38;42.46;102725.84;4954997;28;52082;-50
2021/11/06 06:07:28;;;;;;;;;3.25;3.25;;;;;18.38;42.40;102725.84;4958540;28;50897;-47
2021/11/06 06:09:54;;;;;;;;;4.50;4.00;;;;;18.38;42.58;102731.31;4971184;28;50954;-52
2021/11/06 06:12:19;;;;;;;;;6.25;4.25;;;;;18.37;42.66;102729.59;4969237;28;52277;-49
2021/11/06 06:14:44;;;;;;;;;5.50;3.00;;;;;18.37;42.58;102730.47;4972996;28;51777;-51
2021/11/06 06:17:10;;;;;;;;;3.25;3.25;;;;;18.37;42.90;102732.34;4963277;28;51186;-50
2021/11/06 06:19:35;;;;;;;;;3.00;3.00;;;;;18.36;42.78;102736.97;4965610;28;51061;-51
2021/11/06 06:22:00;;;;;;;;;3.00;3.00;;;;;18.35;43.01;102740.75;4957876;28;51172;-53
2021/11/06 06:24:26;;;;;;;;;5.00;5.00;;;;;18.36;42.95;102745.22;4964736;28;52744;-51
2021/11/06 06:26:51;;;;;;;;;5.50;5.25;;;;;18.36;42.86;102750.69;4968843;28;51010;-51
2021/11/06 06:29:17;;;;;;;;;4.00;4.00;;;;;18.37;42.86;102754.31;4965577;28;51129;-46
2021/11/06 06:31:42;;;;;;;;;4.75;4.75;;;;;18.34;42.78;102747.25;4963103;28;51217;-50
2021/11/06 06:34:08;;;;;;;;;4.00;3.50;;;;;18.35;42.73;102759.09;4963113;28;52045;-47
2021/11/06 06:36:33;;;;;;;;;4.75;4.00;;;;;18.34;42.68;102768.31;4968310;28;51391;-50
2021/11/06 06:38:58;;;;;;;;;6.00;4.75;;;;;18.32;42.94;102760.25;4994458;28;51017;-52
2021/11/06 06:41:24;;;;;;;;;6.50;5.50;;;;;18.32;42.69;102760.25;4976728;28;51360;-53
2021/11/06 06:43:49;;;;;;;;;4.75;4.75;;;;;18.33;42.83;102772.09;5077143;27;51178;-50
2021/11/06 06:46:15;;;;;;;;;4.00;4.00;;;;;18.32;42.75;102770.38;4975127;27;51179;-51
2021/11/06 06:48:40;;;;;;;;;4.50;2.50;;;;;18.31;43.02;102769.50;4954987;28;51133;-48
2021/11/06 06:51:05;;;;;;;;;4.25;4.25;;;;;18.30;42.81;102772.41;4959579;28;51023;-47
2021/11/06 06:53:31;;;;;;;;;5.00;4.00;;;;;18.30;42.70;102766.94;4962039;28;51789;-49
2021/11/06 06:55:56;;;;;;;;;3.25;3.25;;;;;18.30;42.60;102762.31;4955765;28;51093;-52
2021/11/06 06:58:21;;;;;;;;;5.00;5.00;;;;;18.30;42.83;102764.19;4968347;28;51006;-51
2021/11/06 07:00:47;;;;;;;;;3.50;3.50;;;;;18.29;42.65;102768.81;4963667;28;51133;-49
2021/11/06 07:03:12;;;;;;;;;2.50;2.50;;;;;18.29;42.51;102774.31;4958975;28;51304;-52
2021/11/06 07:05:38;;;;;;;;;4.75;4.75;;;;;18.29;42.91;102767.97;4974164;28;51088;-52
2021/11/06 07:08:05;;;;;;;;;5.75;5.25;;;;;18.28;42.87;102769.00;4968419;28;51190;-51
2021/11/06 07:10:32;;;;;;;;;6.50;6.00;;;;;18.27;42.79;102765.38;4971254;27;51091;-53
2021/11/06 07:12:58;;;;;;;;;4.75;4.75;;;;;18.27;42.95;102768.13;4971604;28;51900;-49
2021/11/06 07:15:24;;;;;;;;;4.25;4.25;;;;;18.26;42.51;102771.03;4973596;28;51116;-52
2021/11/06 07:17:49;;;;;;;;;5.00;5.00;;;;;18.26;42.72;102771.91;4971960;28;51059;-51
2021/11/06 07:20:16;;;;;;;;;4.75;4.75;;;;;18.25;42.76;102772.06;4968409;28;51105;-50
2021/11/06 07:22:41;;;;;;;;;5.00;4.00;;;;;18.25;42.99;102774.81;4970486;28;50988;-49
2021/11/06 07:25:07;;;;;;;;;5.75;4.00;;;;;18.24;42.86;102773.09;4971498;28;51060;-50
2021/11/06 07:27:34;;;;;;;;;4.25;3.25;;;;;18.25;42.77;102774.81;4970173;28;50992;-51
2021/11/06 07:29:59;;;;;;;;;6.25;4.75;;;;;18.24;42.91;102773.09;4954636;28;50920;-51
2021/11/06 07:32:25;;;;;;;;;6.00;5.00;;;;;18.25;42.86;102772.06;4963903;28;50946;-52
2021/11/06 07:34:50;;;;;;;;;4.75;4.75;;;;;18.22;42.80;102765.00;4959147;28;51069;-48
2021/11/06 07:37:16;;;;;;;;;3.00;3.00;;;;;18.23;42.60;102771.34;4962978;28;51089;-50
2021/11/06 07:39:41;;;;;;;;;3.25;3.00;;;;;18.23;42.76;102768.59;4964776;28;51042;-51
2021/11/06 07:42:06;;;;;;;;;4.00;4.00;;;;;18.23;42.66;102768.59;4953572;28;51065;-53
2021/11/06 07:44:32;;;;;;;;;4.00;3.00;;;;;18.20;42.59;102768.94;4956268;28;51284;-46
2021/11/06 07:46:57;;;;;;;;;4.00;4.00;;;;;18.21;42.26;102784.34;4973627;28;52070;-48
2021/11/06 07:49:23;;;;;;;;;9.75;9.25;;;;;18.15;40.76;102777.66;4973791;28;51184;-52
2021/11/06 07:51:48;;;;;;;;;11.00;11.00;;;;;18.05;40.10;102765.91;4964959;28;52720;-54
2021/11/06 07:54:14;;;;;;;;;7.50;7.00;;;;;17.99;40.34;102772.03;4960124;28;50951;-50
2021/11/06 07:56:39;;;;;;;;;10.25;8.75;;;;;17.98;40.53;102768.44;4954931;28;51307;-47
2021/11/06 07:59:06;;;;;;;;;7.00;5.75;;;;;18.03;40.28;102773.41;4967982;28;51021;-50
2021/11/06 08:01:31;;;;;;;;;5.50;5.00;;;;;18.10;40.72;102772.63;4971019;28;52029;-52
2021/11/06 08:03:57;;;;;;;;;6.50;5.25;;;;;18.19;40.73;102779.03;4959061;28;51045;-50
2021/11/06 08:06:22;;;;;;;;;6.00;5.25;;;;;18.28;40.85;102786.31;4967221;28;50986;-50
2021/11/06 08:08:47;;;;;;;;;6.00;5.00;;;;;18.39;40.78;102790.66;4967617;28;51407;-52
2021/11/06 08:11:13;;;;;;;;;5.00;5.00;;;;;18.47;40.94;102782.50;4955528;28;51960;-49
2021/11/06 08:13:38;;;;;;;;;6.25;5.00;;;;;18.55;41.10;102774.31;4955512;28;51474;-53
2021/11/06 08:16:04;;;;;;;;;5.50;3.50;;;;;18.65;41.50;102785.19;4966503;28;51635;-51
2021/11/06 08:18:29;;;;;;;;;5.00;4.00;;;;;18.73;41.21;102793.47;4975917;28;51219;-50
2021/11/06 08:20:56;;;;;;;;;5.00;5.00;;;;;18.81;41.38;102789.91;4956379;28;51048;-49
2021/11/06 08:23:22;;;;;;;;;5.25;3.50;;;;;18.89;41.56;102789.94;4961030;28;51618;-52
2021/11/06 08:25:47;;;;;;;;;5.25;4.75;;;;;18.97;41.45;102793.59;4952922;28;51053;-54
2021/11/06 08:28:14;;;;;;;;;5.25;4.00;;;;;19.03;41.35;102784.69;4969303;28;51085;-51
2021/11/06 08:30:40;;;;;;;;;7.00;4.00;;;;;19.11;41.41;102799.47;4953522;28;51849;-50
2021/11/06 08:33:05;;;;;;;;;4.00;4.00;;;;;19.19;41.49;102796.75;4961297;28;51247;-51
2021/11/06 08:35:30;;;;;;;;;5.50;4.75;;;;;19.26;41.68;102789.56;4954406;28;51422;-52
2021/11/06 08:38:01;;;;;;;;;6.50;4.75;;;;;19.33;41.32;102793.34;4953672;28;51303;-51
2021/11/06 08:40:28;;;;;;;;;5.00;4.25;;;;;19.40;41.29;102791.66;4952438;28;51285;-48
2021/11/06 08:42:54;;;;;;;;;8.50;5.00;;;;;19.47;41.05;102791.84;4953283;28;50988;-53
2021/11/06 08:45:21;;;;;;;;;4.00;4.00;;;;;19.54;41.20;102779.16;4956271;28;51239;-53
2021/11/06 08:47:47;;;;;;;;;4.75;4.00;;;;;19.60;40.86;102781.25;4953987;28;51156;-48
2021/11/06 08:50:17;;;;;;;;;6.00;5.50;;;;;19.66;40.99;102775.06;4965269;28;51358;-51
2021/11/06 08:52:43;;;;;;;;;10.50;4.75;;;;;19.72;40.70;102771.63;4964205;28;51361;-51
2021/11/06 08:55:09;;;;;;;;;3.75;3.75;;;;;19.79;40.83;102766.28;4966930;28;51152;-53
2021/11/06 08:57:37;;;;;;;;;6.00;5.00;;;;;19.86;40.85;102767.34;4953570;28;51260;-52
2021/11/06 09:00:10;;;;;;;;;3.50;3.25;;;;;19.91;40.49;102772.34;4960715;28;51018;-54
2021/11/06 09:02:36;;;;;;;;;4.50;4.00;;;;;19.97;40.66;102778.00;4964437;28;51030;-52
2021/11/06 09:05:06;;;;;;;;;4.00;4.00;;;;;20.01;40.54;102784.88;4963081;28;51158;-51
2021/11/06 09:07:33;;;;;;;;;4.00;4.00;;;;;20.08;40.18;102787.78;4966254;28;51249;-49
2021/11/06 09:10:04;;;;;;;;;3.25;3.00;;;;;20.13;40.52;102783.50;4962133;28;52128;-50
2021/11/06 09:12:30;;;;;;;;;4.25;2.00;;;;;20.21;40.73;102784.50;4962771;28;51394;-51
2021/11/06 09:14:55;;;;;;;;;3.25;2.50;;;;;20.29;40.89;102784.50;4966469;28;51025;-48
2021/11/06 09:17:21;;;;;;;;;2.50;2.50;;;;;20.35;40.83;102772.81;4972255;28;51093;-49
2021/11/06 09:19:47;;;;;;;;;2.75;2.75;;;;;20.42;40.95;102779.31;4957066;28;51947;-48
2021/11/06 09:22:12;;;;;;;;;2.50;2.50;;;;;20.49;40.91;102783.13;4961813;28;51402;-52
2021/11/06 09:24:40;;;;;;;;;3.25;2.00;;;;;20.54;40.54;102772.44;4962062;28;51141;-50
2021/11/06 09:27:05;;;;;;;;;3.50;2.75;;;;;20.61;40.96;102776.19;4973241;28;51605;-52
2021/11/06 09:29:31;;;;;;;;;3.75;2.00;;;;;20.66;40.88;102781.19;4962981;28;51620;-53
2021/11/06 09:31:56;;;;;;;;;6.25;5.00;;;;;20.72;40.46;102773.06;4965874;28;51153;-51
2021/11/06 09:34:22;;;;;;;;;3.00;3.00;;;;;20.78;40.77;102779.75;4960181;28;51099;-50
2021/11/06 09:36:47;;;;;;;;;3.00;3.00;;;;;20.85;40.66;102783.53;4962982;28;52292;-52
2021/11/06 09:39:14;;;;;;;;;3.25;2.25;;;;;20.91;40.34;102774.53;4961336;28;51283;-53
2021/11/06 09:41:40;;;;;;;;;4.00;3.25;;;;;20.99;40.54;102773.66;4959826;28;51160;-49
2021/11/06 09:44:06;;;;;;;;;4.75;3.25;;;;;21.04;40.57;102774.81;4958156;28;51311;-52
2021/11/06 09:46:31;;;;;;;;;2.50;2.50;;;;;21.12;40.09;102776.66;4966369;28;51605;-53
2021/11/06 09:48:57;;;;;;;;;2.50;2.50;;;;;21.20;40.49;102768.38;4957762;28;51915;-53
2021/11/06 09:51:22;;;;;;;;;2.00;2.00;;;;;21.27;40.13;102769.41;4954696;28;52126;-52
2021/11/06 09:53:51;;;;;;;;;3.25;2.00;;;;;21.36;39.99;102775.69;4953711;28;51330;-51
2021/11/06 09:56:23;;;;;;;;;2.25;2.25;;;;;21.45;39.87;102768.22;4954485;28;52505;-52
2021/11/06 09:58:54;;;;;;;;;4.50;3.00;;;;;21.53;39.77;102773.69;4953963;28;53547;-52
2021/11/06 10:01:19;;;;;;;;;2.00;1.25;;;;;21.63;39.83;102771.56;4961007;28;51185;-55
2021/11/06 10:03:45;;;;;;;;;2.00;2.00;;;;;21.72;39.61;102764.09;4957605;28;51760;-53
2021/11/06 10:06:39;;;;;;;;;4.75;3.00;;;;;21.82;39.59;102767.44;4960774;28;51387;-52
2021/11/06 10:09:11;;;;;;;;;2.25;2.25;;;;;21.92;40.07;102772.72;4956692;28;52974;-50
2021/11/06 10:11:36;;;;;;;;;6.25;2.25;;;;;21.99;39.53;102762.63;4957733;28;54322;-53
2021/11/06 10:14:08;;;;;;;;;2.75;2.00;;;;;22.03;39.70;102780.56;4957174;28;51219;-52
2021/11/06 10:16:46;;;;;;;;;0.50;0.00;;;;;22.04;39.19;102765.69;4960831;28;51491;-52
2021/11/06 10:19:21;;;;;;;;;2.25;2.25;;;;;22.01;38.99;102763.31;4957117;28;51801;-51
2021/11/06 10:21:50;;;;;;;;;2.75;1.75;;;;;21.97;38.62;102764.72;4954829;28;51031;-53
2021/11/06 10:24:35;;;;;;;;;3.00;2.25;;;;;21.93;38.68;102752.34;4953517;28;51237;-52
2021/11/06 10:27:22;;;;;;;;;1.00;1.00;;;;;21.92;38.57;102762.53;4960846;28;51144;-53
2021/11/06 10:30:13;;;;;;;;;2.00;2.00;;;;;21.95;38.97;102756.63;4958484;28;51834;-50
2021/11/06 10:32:44;;;;;;;;;3.25;2.00;;;;;21.98;38.84;102758.16;4959311;27;51478;-52
2021/11/06 10:35:15;;;;;;;;;2.50;2.50;;;;;22.03;38.43;102752.94;4959864;28;51346;-52
2021/11/06 10:37:40;;;;;;;;;5.00;2.00;;;;;22.07;38.43;102754.31;4957867;28;51321;-50
2021/11/06 10:40:09;;;;;;;;;2.00;2.00;;;;;22.12;38.84;102761.00;4965110;28;51275;-52
2021/11/06 10:42:46;;;;;;;;;4.25;2.75;;;;;22.15;38.74;102755.09;4955761;28;52193;-48
2021/11/06 10:45:19;;;;;;;;;3.00;3.00;;;;;22.18;38.78;102753.84;4958307;28;51114;-52
2021/11/06 10:48:01;;;;;;;;;1.75;1.50;;;;;22.22;38.60;102746.06;4967766;28;51298;-52
2021/11/06 10:50:42;;;;;;;;;1.00;1.00;;;;;22.22;38.67;102746.06;4952969;28;52101;-60
2021/11/06 10:53:09;;;;;;;;;3.00;3.00;;;;;22.17;38.60;102743.88;4957221;28;51194;-51
2021/11/06 10:55:36;;;;;;;;;3.25;2.00;;;;;22.14;38.32;102742.34;4959036;28;51109;-48
2021/11/06 10:58:19;;;;;;;;;5.25;2.75;;;;;22.12;38.36;102735.31;4956050;28;51133;-52
2021/11/06 11:00:54;;;;;;;;;2.00;2.00;;;;;22.06;38.14;102750.69;4955614;28;51205;-49
2021/11/06 11:03:30;;;;;;;;;2.75;2.00;;;;;22.02;39.01;102740.19;4960247;28;51265;-51
2021/11/06 11:05:58;;;;;;;;;3.00;3.00;;;;;21.97;38.82;102737.13;4961042;28;51177;-51
2021/11/06 11:08:24;;;;;;;;;3.50;2.75;;;;;21.92;38.83;102742.38;4954576;28;51336;-50
2021/11/06 11:10:50;;;;;;;;;2.00;2.00;;;;;21.87;38.26;102734.63;4964885;28;51140;-51
2021/11/06 11:13:19;;;;;;;;;5.00;3.00;;;;;21.83;38.25;102727.78;4953230;28;50984;-51
2021/11/06 11:15:48;;;;;;;;;4.75;4.25;;;;;21.81;38.64;102732.63;4953866;28;51070;-49
2021/11/06 11:18:34;;;;;;;;;2.50;2.25;;;;;21.75;38.16;102725.94;4966826;27;51187;-50
2021/11/06 11:21:18;;;;;;;;;2.00;2.00;;;;;21.71;38.19;102710.81;4968872;28;53299;-52